Time;durP1;ratioP1;P1;durP2;ratioP2;P2;SDS_P1;SDS_P2;PMS_P1;PMS_P2;Temp;Humidity;BMP_temperature;BMP_pressure;BME280_temperature;BME280_humidity;BME280_pressure;Samples;Min_cycle;Max_cycle;Signal;HPM_P1;HPM_P2
2020/12/22 00:01:30;;;;;;;49.03;22.00;;;;;;;1.29;96.54;100873.69;3527048;81;33576;-79
2020/12/22 00:06:31;;;;;;;52.67;21.73;;;;;;;1.32;96.53;100859.50;3526740;81;98956;-79
2020/12/22 00:11:32;;;;;;;49.50;22.60;;;;;;;1.38;96.70;100842.01;3526349;82;33540;-80
2020/12/22 00:16:36;;;;;;;46.35;21.33;;;;;;;1.34;96.70;100828.84;3508489;81;98694;-80
2020/12/22 00:21:37;;;;;;;57.33;26.23;;;;;;;1.35;96.62;100830.98;3522174;82;34420;-80
2020/12/22 00:26:38;;;;;;;48.57;22.83;;;;;;;1.43;96.61;100831.05;3535342;81;98665;-80
2020/12/22 00:31:39;;;;;;;49.57;23.83;;;;;;;1.46;96.48;100812.82;3529290;81;33438;-80
2020/12/22 00:36:39;;;;;;;55.53;24.53;;;;;;;1.42;96.34;100811.04;3525166;82;98601;-80
2020/12/22 00:41:40;;;;;;;47.37;23.03;;;;;;;1.34;96.42;100799.02;3526005;82;32394;-80
2020/12/22 00:46:41;;;;;;;46.37;22.47;;;;;;;1.29;96.62;100807.27;3520604;80;98897;-78
2020/12/22 00:51:42;;;;;;;51.77;23.50;;;;;;;1.30;96.74;100809.40;3528167;82;29167;-79
2020/12/22 00:56:48;;;;;;;50.27;23.03;;;;;;;1.33;96.79;100783.04;3524907;82;98705;-80
2020/12/22 01:01:49;;;;;;;49.17;23.07;;;;;;;1.35;96.81;100771.33;3521885;82;25951;-80
2020/12/22 01:06:50;;;;;;;54.97;23.53;;;;;;;1.34;96.82;100762.41;3518557;82;98535;-80
2020/12/22 01:11:51;;;;;;;44.37;20.90;;;;;;;1.33;96.88;100751.86;3521947;82;33383;-80
2020/12/22 01:16:55;;;;;;;44.05;21.07;;;;;;;1.41;96.99;100758.70;3517617;82;98348;-80
2020/12/22 01:21:57;;;;;;;42.27;19.37;;;;;;;1.53;96.87;100758.16;3514132;82;33394;-79
2020/12/22 01:26:57;;;;;;;48.70;21.03;;;;;;;1.60;96.69;100743.59;3517178;82;98518;-79
2020/12/22 01:31:59;;;;;;;48.60;21.43;;;;;;;1.62;96.67;100724.55;3527607;82;33534;-80
2020/12/22 01:36:59;;;;;;;45.30;20.33;;;;;;;1.59;96.54;100702.66;3520166;80;98440;-79
2020/12/22 01:42:00;;;;;;;42.77;20.30;;;;;;;1.50;96.79;100695.84;3523503;82;33682;-79
2020/12/22 01:47:01;;;;;;;40.07;19.23;;;;;;;1.49;97.14;100677.94;3492927;82;98386;-79
2020/12/22 01:52:03;;;;;;;40.07;18.53;;;;;;;1.56;97.07;100689.17;3515495;82;32421;-79
2020/12/22 01:57:11;;;;;;;39.83;17.70;;;;;;;1.64;97.12;100672.13;3502427;82;98456;-78
2020/12/22 02:02:12;;;;;;;39.07;18.47;;;;;;;1.76;97.09;100664.19;3509065;83;33323;-79
2020/12/22 02:07:13;;;;;;;40.20;18.10;;;;;;;1.87;97.07;100641.67;3505178;82;98176;-78
2020/12/22 02:12:15;;;;;;;40.27;18.30;;;;;;;1.89;96.89;100615.81;3506429;83;33813;-78
2020/12/22 02:17:17;;;;;;;43.17;20.53;;;;;;;1.93;96.75;100620.05;3499781;82;98180;-78
2020/12/22 02:22:18;;;;;;;37.33;18.17;;;;;;;1.91;96.68;100627.14;3506171;83;33377;-78
2020/12/22 02:27:19;;;;;;;36.17;15.23;;;;;;;1.87;96.60;100607.75;3501740;82;98414;-78
2020/12/22 02:32:20;;;;;;;38.67;16.43;;;;;;;1.80;96.73;100574.28;3510796;83;33323;-77
2020/12/22 02:37:21;;;;;;;33.53;15.93;;;;;;;1.81;96.97;100550.09;3503316;83;98190;-79
2020/12/22 02:42:23;;;;;;;37.37;18.43;;;;;;;1.90;97.09;100546.86;3507130;83;33840;-79
2020/12/22 02:47:23;;;;;;;35.77;17.53;;;;;;;1.96;97.05;100553.73;3494202;82;98370;-79
2020/12/22 02:52:24;;;;;;;31.97;14.67;;;;;;;2.05;96.91;100561.34;3508184;83;32157;-79
2020/12/22 02:57:25;;;;;;;37.30;16.23;;;;;;;2.16;96.70;100568.05;3502775;82;98147;-79
2020/12/22 03:02:26;;;;;;;36.53;16.47;;;;;;;2.20;96.69;100555.42;3507295;83;30558;-79
2020/12/22 03:07:27;;;;;;;34.07;17.20;;;;;;;2.26;96.38;100550.65;3499677;82;98223;-79
2020/12/22 03:12:28;;;;;;;35.50;17.20;;;;;;;2.25;96.37;100540.91;3508665;83;25983;-80
2020/12/22 03:17:29;;;;;;;29.90;14.77;;;;;;;2.21;96.30;100521.75;3501859;83;98564;-80
2020/12/22 03:22:30;;;;;;;29.57;14.73;;;;;;;2.16;96.37;100515.11;3509941;83;31713;-80
2020/12/22 03:27:31;;;;;;;30.43;14.50;;;;;;;2.18;96.57;100503.37;3482859;83;98448;-80
2020/12/22 03:32:32;;;;;;;33.83;14.53;;;;;;;2.24;96.64;100476.87;3511689;83;31821;-80
2020/12/22 03:37:33;;;;;;;35.03;16.50;;;;;;;2.37;96.57;100454.16;3502002;83;98565;-79
2020/12/22 03:42:34;;;;;;;42.20;21.70;;;;;;;2.37;96.57;100454.16;3515196;83;32233;-78
2020/12/22 03:47:35;;;;;;;51.23;27.10;;;;;;;2.45;96.52;100454.15;3505363;83;98497;-79
2020/12/22 03:52:37;;;;;;;42.17;22.17;;;;;;;2.51;96.42;100445.28;3514446;83;29854;-80
2020/12/22 03:57:38;;;;;;;38.20;18.97;;;;;;;2.50;96.32;100439.59;3504660;81;98441;-79
2020/12/22 04:02:39;;;;;;;37.63;19.47;;;;;;;2.49;96.46;100435.28;3503844;82;28837;-79
2020/12/22 04:07:40;;;;;;;31.73;15.47;;;;;;;2.52;96.50;100420.48;3504130;83;98516;-80
2020/12/22 04:12:41;;;;;;;34.37;15.63;;;;;;;2.60;96.60;100408.01;3507655;83;27055;-80
2020/12/22 04:17:42;;;;;;;31.53;13.90;;;;;;;2.70;96.56;100400.31;3505311;82;98131;-79
2020/12/22 04:22:43;;;;;;;29.53;13.07;;;;;;;2.79;96.48;100408.44;3508960;83;26628;-79
2020/12/22 04:27:44;;;;;;;23.73;13.37;;;;;;;2.90;96.32;100403.66;3504446;83;98524;-79
2020/12/22 04:32:45;;;;;;;31.47;13.30;;;;;;;2.97;96.23;100395.00;3509831;83;35190;-80
2020/12/22 04:37:46;;;;;;;31.27;13.83;;;;;;;3.03;96.02;100380.91;3501211;82;98194;-79
2020/12/22 04:42:50;;;;;;;31.93;14.13;;;;;;;3.09;96.04;100371.43;3505914;83;35122;-80
2020/12/22 04:47:51;;;;;;;31.70;14.23;;;;;;;3.11;95.81;100361.59;3497089;82;98643;-79
2020/12/22 04:52:52;;;;;;;25.40;12.17;;;;;;;3.11;95.89;100343.92;3515106;82;35047;-79
2020/12/22 04:57:55;;;;;;;27.87;12.83;;;;;;;3.11;95.85;100346.64;3518245;80;98368;-79
2020/12/22 05:02:58;;;;;;;26.43;12.00;;;;;;;3.13;95.90;100349.81;3503345;82;35038;-79
2020/12/22 05:07:59;;;;;;;27.37;10.77;;;;;;;3.17;96.02;100333.86;3518768;82;98717;-80
2020/12/22 05:13:00;;;;;;;30.20;13.20;;;;;;;3.23;96.07;100321.66;3526758;82;35584;-80
2020/12/22 05:18:02;;;;;;;28.57;12.70;;;;;;;3.30;96.16;100310.27;3513626;80;98218;-80
2020/12/22 05:23:03;;;;;;;23.20;11.37;;;;;;;3.39;96.23;100307.70;3524774;82;35048;-80
2020/12/22 05:28:07;;;;;;;25.80;11.03;;;;;;;3.46;96.14;100296.30;3526963;82;98422;-80
2020/12/22 05:33:09;;;;;;;24.07;11.07;;;;;;;3.51;96.09;100282.49;3523353;82;35552;-80
2020/12/22 05:38:10;;;;;;;20.37;9.73;;;;;;;3.56;96.13;100273.55;3527563;82;98270;-81
2020/12/22 05:43:12;;;;;;;23.70;11.03;;;;;;;3.62;96.07;100267.34;3525014;82;35502;-81
2020/12/22 05:48:15;;;;;;;25.60;10.93;;;;;;;3.67;96.21;100253.53;3514111;80;98687;-81
2020/12/22 05:53:18;;;;;;;23.23;10.30;;;;;;;3.72;96.17;100251.97;3510964;82;35012;-81
2020/12/22 05:58:19;;;;;;;28.70;12.93;;;;;;;3.77;96.18;100252.53;3478319;82;98715;-82
2020/12/22 06:03:21;;;;;;;27.93;12.37;;;;;;;3.78;96.22;100239.73;3487893;83;35030;-81
2020/12/22 06:08:22;;;;;;;29.00;12.17;;;;;;;3.79;96.29;100243.48;3477802;81;98533;-83
2020/12/22 06:13:23;;;;;;;24.13;10.70;;;;;;;3.76;96.42;100233.26;3486651;83;35596;-82
2020/12/22 06:18:24;;;;;;;25.90;12.57;;;;;;;3.71;96.78;100222.58;3477827;83;98583;-82
2020/12/22 06:23:25;;;;;;;27.67;12.20;;;;;;;3.65;96.95;100213.63;3479886;83;35115;-82
2020/12/22 06:28:30;;;;;;;27.03;11.73;;;;;;;3.63;97.28;100201.71;3473493;83;98390;-81
2020/12/22 06:33:37;;;;;;;23.60;11.33;;;;;;;3.67;97.37;100171.31;3478499;83;35076;-83
2020/12/22 06:38:55;;;;;;;23.90;11.07;;;;;;;3.73;97.66;100159.66;3471438;83;98583;-83
2020/12/22 06:43:57;;;;;;;20.97;9.93;;;;;;;3.75;97.72;100137.78;3482946;82;98862;-83
2020/12/22 06:48:57;;;;;;;20.87;9.87;;;;;;;3.81;97.72;100140.50;3483777;83;35417;-84
2020/12/22 06:54:08;;;;;;;23.90;10.80;;;;;;;3.84;97.71;100140.39;3491268;82;98678;-83
2020/12/22 06:59:10;;;;;;;23.43;11.10;;;;;;;3.86;97.75;100125.87;3509492;83;35115;-83
2020/12/22 07:04:18;;;;;;;24.17;11.83;;;;;;;3.86;97.98;100110.34;3502272;82;98771;-85
2020/12/22 07:09:29;;;;;;;25.50;11.17;;;;;;;3.92;97.90;100117.70;3502552;83;35065;-84
2020/12/22 07:14:32;;;;;;;20.13;9.90;;;;;;;3.94;97.91;100110.01;3498908;82;99205;-83
2020/12/22 07:19:35;;;;;;;24.60;11.03;;;;;;;3.95;97.98;100095.25;3503536;83;35076;-84
2020/12/22 07:24:37;;;;;;;23.37;9.93;;;;;;;3.96;98.12;100083.22;3500292;82;98689;-85
2020/12/22 07:29:40;;;;;;;22.73;10.77;;;;;;;4.01;98.06;100068.02;3512941;83;34990;-86
2020/12/22 07:34:42;;;;;;;17.93;9.97;;;;;;;4.00;98.07;100075.41;3495500;82;99003;-85
2020/12/22 07:39:43;;;;;;;22.60;10.60;;;;;;;4.05;98.40;100082.55;3506105;82;36077;-86
2020/12/22 07:44:46;;;;;;;24.10;11.30;;;;;;;4.09;98.19;100081.52;3499866;81;99141;-85
2020/12/22 07:49:47;;;;;;;23.00;10.30;;;;;;;4.17;98.21;100086.61;3510624;83;35162;-85
2020/12/22 07:54:58;;;;;;;26.37;12.20;;;;;;;4.21;98.10;100073.91;3507536;81;98859;-85
2020/12/22 08:00:05;;;;;;;25.30;11.40;;;;;;;4.25;98.19;100078.31;3520448;82;35012;-86
2020/12/22 08:05:13;;;;;;;23.43;12.50;;;;;;;4.23;97.99;100081.96;3518393;81;98466;-85
2020/12/22 08:10:15;;;;;;;25.50;11.87;;;;;;;4.21;98.03;100077.41;3516858;82;36053;-86
2020/12/22 08:15:16;;;;;;;20.50;10.20;;;;;;;4.15;98.09;100058.94;3513641;82;98649;-87
2020/12/22 08:20:18;;;;;;;25.23;11.13;;;;;;;4.12;98.31;100046.80;3525753;82;35106;-85
2020/12/22 08:25:19;;;;;;;21.75;11.10;;;;;;;4.16;98.57;100035.42;3524346;79;98877;-86
2020/12/22 08:30:21;;;;;;;23.23;10.70;;;;;;;4.21;98.66;100025.66;3526652;82;34955;-84
2020/12/22 08:35:24;;;;;;;26.87;12.53;;;;;;;4.26;98.60;100028.14;3519624;81;98665;-84
2020/12/22 08:40:27;;;;;;;28.13;12.43;;;;;;;4.32;98.76;100013.14;3522550;82;34967;-84
2020/12/22 08:45:30;;;;;;;30.43;13.23;;;;;;;4.37;98.50;100003.95;3514835;82;98754;-84
2020/12/22 08:50:31;;;;;;;23.03;10.97;;;;;;;4.43;98.70;99993.03;3524672;82;35953;-85
2020/12/22 08:55:32;;;;;;;18.10;9.33;;;;;;;4.47;98.69;99981.67;3512638;82;98813;-86
2020/12/22 09:00:33;;;;;;;22.00;10.87;;;;;;;4.53;98.84;99972.88;3524690;82;35060;-84
2020/12/22 09:05:35;;;;;;;19.67;10.00;;;;;;;4.61;98.70;99970.59;3523514;81;98756;-86
2020/12/22 09:10:48;;;;;;;23.67;11.23;;;;;;;4.64;98.78;99967.15;3522608;82;34944;-85
2020/12/22 09:15:55;;;;;;;23.27;11.08;;;;;;;4.70;98.73;99952.12;3495941;81;98494;-86
2020/12/22 09:21:03;;;;;;;21.30;10.40;;;;;;;4.72;99.16;99946.33;3525760;82;26072;-87
2020/12/22 09:26:04;;;;;;;18.43;8.93;;;;;;;4.77;99.02;99954.25;3523488;82;98657;-86
2020/12/22 09:31:05;;;;;;;19.40;9.63;;;;;;;4.79;99.27;99935.60;3529307;81;35445;-85
2020/12/22 09:36:10;;;;;;;22.87;10.90;;;;;;;4.87;99.49;99930.56;3520550;82;98456;-83
2020/12/22 09:41:11;;;;;;;20.73;9.83;;;;;;;4.93;99.35;99917.70;3524888;82;34970;-82
2020/12/22 09:46:12;;;;;;;20.17;9.27;;;;;;;4.99;99.44;99900.48;3507802;82;98202;-82
2020/12/22 09:51:16;;;;;;;19.40;9.03;;;;;;;5.06;99.46;99900.65;3502231;82;35035;-83
2020/12/22 09:56:17;;;;;;;19.10;9.40;;;;;;;5.12;99.58;99893.22;3504626;82;98121;-82
2020/12/22 10:01:23;;;;;;;21.27;9.73;;;;;;;5.17;99.77;99871.69;3507980;83;35456;-79
2020/12/22 10:06:26;;;;;;;16.57;9.73;;;;;;;5.25;99.90;99869.36;3503845;83;98192;-82
2020/12/22 10:11:31;;;;;;;15.30;7.27;;;;;;;5.28;100.00;99863.19;3505699;83;36267;-81
2020/12/22 10:16:33;;;;;;;15.97;8.23;;;;;;;5.35;100.00;99857.91;3484794;83;98454;-80
2020/12/22 10:21:34;;;;;;;14.07;6.90;;;;;;;5.44;100.00;99844.84;3511777;83;35651;-81
2020/12/22 10:26:35;;;;;;;23.17;9.83;;;;;;;5.53;100.00;99854.42;3503321;82;98355;-82
2020/12/22 10:31:36;;;;;;;19.17;7.40;;;;;;;5.63;100.00;99842.14;3512487;83;35515;-85
2020/12/22 10:36:36;;;;;;;15.23;7.50;;;;;;;5.72;100.00;99833.95;3500495;83;98737;-81
2020/12/22 10:41:37;;;;;;;15.20;6.97;;;;;;;5.77;100.00;99824.67;3506954;83;35039;-82
2020/12/22 10:46:38;;;;;;;14.98;7.10;;;;;;;5.82;100.00;99819.77;3476833;82;98415;-81
2020/12/22 10:51:39;;;;;;;15.00;7.60;;;;;;;5.87;100.00;99829.03;3513656;83;35258;-82
2020/12/22 10:56:44;;;;;;;14.23;6.80;;;;;;;5.93;100.00;99811.77;3515577;81;98755;-81
2020/12/22 11:01:49;;;;;;;16.10;7.17;;;;;;;5.99;100.00;99809.77;3532426;82;33105;-82
2020/12/22 11:07:09;;;;;;;13.30;7.70;;;;;;;6.05;100.00;99805.58;3521000;81;100527;-82
2020/12/22 11:12:05;;;;;;;13.60;6.40;;;;;;;6.11;100.00;99799.27;3525168;82;25920;-81
2020/12/22 11:17:05;;;;;;;13.07;6.27;;;;;;;6.12;100.00;99802.20;3510626;82;98175;-80
2020/12/22 11:22:06;;;;;;;14.33;7.00;;;;;;;6.17;100.00;99797.81;3524385;82;32717;-81
2020/12/22 11:27:07;;;;;;;16.43;8.10;;;;;;;6.22;100.00;99796.92;3518174;82;98181;-82
2020/12/22 11:32:09;;;;;;;14.40;7.77;;;;;;;6.28;100.00;99787.27;3518555;82;33236;-80
2020/12/22 11:37:10;;;;;;;17.70;8.63;;;;;;;6.34;100.00;99800.06;3517179;81;98332;-80
2020/12/22 11:42:11;;;;;;;15.23;7.73;;;;;;;6.42;100.00;99786.16;3526137;82;32793;-81
2020/12/22 11:47:12;;;;;;;15.23;7.27;;;;;;;6.51;100.00;99793.55;3516746;82;98365;-80
2020/12/22 11:52:13;;;;;;;13.70;7.60;;;;;;;6.63;100.00;99785.72;3495983;82;33205;-80
2020/12/22 11:57:14;;;;;;;14.57;7.83;;;;;;;6.71;100.00;99776.48;3514096;81;98386;-80
2020/12/22 12:02:15;;;;;;;15.47;7.23;;;;;;;6.82;100.00;99789.75;3514727;82;33198;-80
2020/12/22 12:07:16;;;;;;;15.43;8.40;;;;;;;6.92;100.00;99789.91;3515291;81;98505;-81
2020/12/22 12:12:17;;;;;;;14.23;8.60;;;;;;;7.02;100.00;99785.17;3516268;82;27469;-80
2020/12/22 12:17:18;;;;;;;15.90;7.60;;;;;;;7.10;100.00;99788.80;3518292;81;98588;-80
2020/12/22 12:22:19;;;;;;;17.57;9.23;;;;;;;7.04;100.00;99758.22;3525165;82;26067;-81
2020/12/22 12:27:19;;;;;;;15.43;9.23;;;;;;;7.24;100.00;99782.15;3522098;82;98355;-81
2020/12/22 12:32:26;;;;;;;16.00;8.60;;;;;;;7.32;100.00;99784.61;3518786;82;26345;-81
2020/12/22 12:37:31;;;;;;;16.17;9.40;;;;;;;7.39;100.00;99766.94;3515212;81;98538;-80
2020/12/22 12:42:32;;;;;;;13.73;8.10;;;;;;;7.46;100.00;99762.91;3521894;82;27445;-80
2020/12/22 12:47:33;;;;;;;14.93;8.27;;;;;;;7.56;100.00;99764.20;3514684;81;98272;-80
2020/12/22 12:52:34;;;;;;;15.53;8.47;;;;;;;7.67;100.00;99769.22;3526687;82;25961;-79
2020/12/22 12:57:34;;;;;;;15.40;7.87;;;;;;;7.77;100.00;99765.25;3519187;82;98703;-80
2020/12/22 13:02:36;;;;;;;14.57;8.00;;;;;;;7.86;100.00;99764.36;3515150;83;26686;-80
2020/12/22 13:07:37;;;;;;;15.93;8.43;;;;;;;7.93;100.00;99754.87;3506603;82;98846;-81
2020/12/22 13:12:39;;;;;;;15.57;8.03;;;;;;;8.02;100.00;99762.78;3512201;83;26404;-80
2020/12/22 13:17:41;;;;;;;14.63;8.97;;;;;;;8.10;100.00;99769.33;3509180;82;98473;-84
2020/12/22 13:22:42;;;;;;;16.50;10.77;;;;;;;8.20;100.00;99754.98;3518687;82;26383;-81
2020/12/22 13:27:43;;;;;;;21.50;10.17;;;;;;;8.27;100.00;99767.38;3503621;83;98989;-79
2020/12/22 13:32:47;;;;;;;19.40;10.43;;;;;;;8.33;100.00;99767.80;3514990;82;26284;-80
2020/12/22 13:37:48;;;;;;;19.00;10.50;;;;;;;8.43;100.00;99773.97;3508159;83;98885;-78
2020/12/22 13:42:49;;;;;;;15.17;8.40;;;;;;;8.50;100.00;99776.80;3517885;83;26543;-80
2020/12/22 13:47:50;;;;;;;14.57;9.27;;;;;;;8.59;100.00;99774.52;3505478;82;98320;-80
2020/12/22 13:52:51;;;;;;;18.73;9.07;;;;;;;8.66;100.00;99776.73;3491637;82;26638;-80
2020/12/22 13:57:52;;;;;;;17.03;8.90;;;;;;;8.73;100.00;99774.64;3511951;82;98570;-80
2020/12/22 14:02:53;;;;;;;19.42;9.23;;;;;;;8.81;100.00;99773.52;3523260;82;26542;-81
2020/12/22 14:07:54;;;;;;;17.83;9.90;;;;;;;8.88;100.00;99771.61;3523555;82;98241;-81
2020/12/22 14:12:55;;;;;;;15.87;9.00;;;;;;;8.96;100.00;99776.56;3524489;82;26146;-80
2020/12/22 14:17:55;;;;;;;14.33;7.83;;;;;;;9.02;100.00;99776.41;3517271;81;98136;-80
2020/12/22 14:22:56;;;;;;;14.63;7.73;;;;;;;9.15;100.00;99789.44;3524508;82;26011;-81
2020/12/22 14:27:57;;;;;;;17.67;8.87;;;;;;;9.24;100.00;99784.41;3522325;82;98289;-80
2020/12/22 14:32:58;;;;;;;15.57;8.33;;;;;;;9.33;100.00;99788.95;3524846;82;33317;-81
2020/12/22 14:37:59;;;;;;;16.13;8.33;;;;;;;9.39;100.00;99784.67;3511826;82;98738;-81
2020/12/22 14:43:00;;;;;;;18.27;9.23;;;;;;;9.46;100.00;99793.54;3527376;82;33288;-81
2020/12/22 14:48:01;;;;;;;14.67;8.03;;;;;;;9.53;100.00;99796.31;3519055;82;98732;-80
2020/12/22 14:53:03;;;;;;;13.43;7.40;;;;;;;9.59;100.00;99794.20;3521323;82;33866;-81
2020/12/22 14:58:04;;;;;;;14.07;6.78;;;;;;;9.66;100.00;99799.72;3480926;79;98909;-81
2020/12/22 15:03:05;;;;;;;11.27;6.80;;;;;;;9.75;100.00;99819.39;3458379;84;33441;-81
2020/12/22 15:08:06;;;;;;;11.03;6.23;;;;;;;9.84;100.00;99818.46;3457138;83;98296;-79
2020/12/22 15:13:07;;;;;;;12.82;6.83;;;;;;;9.95;100.00;99821.23;3464046;84;33509;-80
2020/12/22 15:18:08;;;;;;;15.83;7.97;;;;;;;10.04;100.00;99824.45;3451281;83;98541;-79
2020/12/22 15:23:09;;;;;;;15.37;7.63;;;;;;;10.07;100.00;99823.09;3445993;84;32515;-80
2020/12/22 15:28:11;;;;;;;15.53;7.20;;;;;;;10.15;100.00;99827.42;3446702;84;98690;-80
2020/12/22 15:33:12;;;;;;;15.18;7.60;;;;;;;10.23;100.00;99828.23;3439252;84;98810;-80
2020/12/22 15:38:15;;;;;;;13.67;6.70;;;;;;;10.28;100.00;99825.91;3450534;84;32227;-80
2020/12/22 15:43:16;;;;;;;15.35;8.13;;;;;;;10.37;100.00;99824.16;3441161;84;98556;-80
2020/12/22 15:48:16;;;;;;;16.80;9.60;;;;;;;10.41;100.00;99828.48;3447362;84;31754;-80
2020/12/22 15:53:17;;;;;;;18.30;9.57;;;;;;;10.42;100.00;99827.30;3460092;83;99030;-80
2020/12/22 15:58:18;;;;;;;13.60;8.10;;;;;;;10.46;100.00;99830.84;3474343;81;31760;-80
2020/12/22 16:03:19;;;;;;;16.90;8.53;;;;;;;10.50;100.00;99843.23;3514486;82;98902;-79
2020/12/22 16:08:20;;;;;;;16.60;8.20;;;;;;;10.53;100.00;99846.59;3515936;82;31712;-79
2020/12/22 16:13:24;;;;;;;15.83;8.23;;;;;;;10.55;100.00;99853.85;3509319;82;101519;-77
2020/12/22 16:18:24;;;;;;;13.80;6.87;;;;;;;10.58;100.00;99846.20;3512411;82;32265;-79
2020/12/22 16:23:25;;;;;;;14.73;7.73;;;;;;;10.64;100.00;99847.39;3516492;81;99024;-78
2020/12/22 16:28:27;;;;;;;22.27;9.87;;;;;;;10.69;100.00;99847.01;3521344;82;35370;-77
2020/12/22 16:33:28;;;;;;;19.07;8.87;;;;;;;10.72;100.00;99848.96;3512565;81;98522;-79
2020/12/22 16:38:29;;;;;;;17.83;9.80;;;;;;;10.73;100.00;99853.28;3516203;82;31737;-78
2020/12/22 16:43:31;;;;;;;17.70;8.73;;;;;;;10.72;100.00;99859.39;3512531;81;98908;-78
2020/12/22 16:48:35;;;;;;;20.77;9.70;;;;;;;10.72;100.00;99864.09;3516729;82;31724;-77
2020/12/22 16:53:36;;;;;;;23.52;10.80;;;;;;;10.75;100.00;99864.09;3518432;80;98911;-78
2020/12/22 16:58:37;;;;;;;20.43;9.33;;;;;;;10.78;100.00;99863.91;3455563;83;32306;-78
2020/12/22 17:03:38;;;;;;;15.03;7.50;;;;;;;10.80;100.00;99862.34;3477778;83;98990;-79
2020/12/22 17:08:39;;;;;;;14.83;7.47;;;;;;;10.83;100.00;99860.77;3486703;83;31810;-79
2020/12/22 17:13:41;;;;;;;9.60;5.10;;;;;;;10.87;100.00;99869.25;3482365;82;98866;-78
2020/12/22 17:18:42;;;;;;;11.77;5.47;;;;;;;10.91;100.00;99864.51;3487689;83;31781;-78
2020/12/22 17:23:43;;;;;;;14.07;6.57;;;;;;;11.00;100.00;99868.25;3480640;82;98343;-79
2020/12/22 17:28:45;;;;;;;12.37;6.77;;;;;;;11.06;100.00;99860.59;3486180;83;31998;-78
2020/12/22 17:33:48;;;;;;;13.17;5.80;;;;;;;11.15;100.00;99862.95;3476384;83;100754;-77
2020/12/22 17:38:49;;;;;;;10.23;4.87;;;;;;;11.20;100.00;99854.29;3484983;83;31788;-81
2020/12/22 17:43:50;;;;;;;11.37;5.30;;;;;;;11.26;100.00;99859.02;3478024;82;98834;-81
2020/12/22 17:48:51;;;;;;;10.97;4.87;;;;;;;11.33;100.00;99866.50;3476456;83;32263;-81
2020/12/22 17:53:54;;;;;;;9.73;4.23;;;;;;;11.37;100.00;99879.08;3482457;83;98651;-82
2020/12/22 17:58:55;;;;;;;7.93;3.77;;;;;;;11.39;100.00;99882.21;3492563;83;31792;-81
2020/12/22 18:03:56;;;;;;;9.53;4.17;;;;;;;11.45;100.00;99895.78;3501562;82;98503;-81
2020/12/22 18:08:57;;;;;;;7.93;3.50;;;;;;;11.49;100.00;99889.68;3507990;83;31880;-81
2020/12/22 18:13:57;;;;;;;9.37;3.87;;;;;;;11.50;100.00;99904.26;3494833;82;98590;-80
2020/12/22 18:18:58;;;;;;;7.10;3.33;;;;;;;11.52;100.00;99900.50;3510749;83;31775;-80
2020/12/22 18:23:59;;;;;;;7.63;3.40;;;;;;;11.56;100.00;99906.20;3501943;82;98475;-80
2020/12/22 18:29:01;;;;;;;7.53;3.27;;;;;;;11.57;100.00;99915.27;3510897;83;32186;-81
2020/12/22 18:34:05;;;;;;;6.10;3.07;;;;;;;11.58;100.00;99926.48;3509023;82;98600;-82
2020/12/22 18:39:07;;;;;;;7.73;3.67;;;;;;;11.55;100.00;99943.83;3513385;82;31778;-82
2020/12/22 18:44:09;;;;;;;6.60;2.97;;;;;;;11.56;100.00;99942.02;3498269;82;98486;-80
2020/12/22 18:49:10;;;;;;;11.37;5.37;;;;;;;11.56;100.00;99954.42;3510001;83;26452;-82
2020/12/22 18:54:12;;;;;;;7.77;2.77;;;;;;;11.54;100.00;99956.80;3524080;81;98155;-80
2020/12/22 18:59:17;;;;;;;7.57;2.93;;;;;;;11.51;100.00;99971.36;3518573;82;31746;-81
2020/12/22 19:04:17;;;;;;;6.63;2.90;;;;;;;11.48;100.00;99970.78;3477121;82;98605;-80
2020/12/22 19:09:19;;;;;;;4.33;2.47;;;;;;;11.46;100.00;99984.75;3521383;82;31989;-80
2020/12/22 19:14:20;;;;;;;8.40;4.20;;;;;;;11.45;100.00;99989.47;3513342;81;98686;-79
2020/12/22 19:19:23;;;;;;;5.62;2.50;;;;;;;11.37;100.00;99978.25;3512793;81;32004;-80
2020/12/22 19:24:24;;;;;;;10.23;5.00;;;;;;;11.43;100.00;100006.20;3518268;81;98664;-80
2020/12/22 19:29:25;;;;;;;8.73;4.97;;;;;;;11.39;100.00;100011.70;3529062;82;32172;-80
2020/12/22 19:34:26;;;;;;;8.85;4.60;;;;;;;11.29;100.00;100017.98;3518358;82;98813;-79
2020/12/22 19:39:27;;;;;;;5.53;3.00;;;;;;;11.20;100.00;100040.20;3524696;82;31762;-80
2020/12/22 19:44:28;;;;;;;5.43;2.27;;;;;;;11.03;99.83;100038.20;3519113;82;98587;-80
2020/12/22 19:49:29;;;;;;;5.47;2.50;;;;;;;10.90;99.59;100057.03;3518766;82;31727;-76
2020/12/22 19:54:30;;;;;;;5.40;2.40;;;;;;;10.80;99.25;100063.88;3516469;81;98729;-78
2020/12/22 19:59:30;;;;;;;6.27;2.40;;;;;;;10.72;99.48;100074.64;3529036;82;31419;-78
2020/12/22 20:04:31;;;;;;;9.83;3.70;;;;;;;10.65;99.45;100081.50;3511827;81;98531;-79
2020/12/22 20:09:32;;;;;;;9.77;8.03;;;;;;;10.58;99.45;100081.47;3525589;82;29965;-79
2020/12/22 20:14:33;;;;;;;7.25;3.72;;;;;;;10.48;99.39;100100.08;3525435;82;98273;-79
2020/12/22 20:19:34;;;;;;;5.77;2.63;;;;;;;10.41;99.18;100112.42;3529317;82;35517;-78
2020/12/22 20:24:35;;;;;;;4.87;2.50;;;;;;;10.34;99.19;100120.60;3520461;81;98507;-79
2020/12/22 20:29:35;;;;;;;5.00;2.17;;;;;;;10.25;98.63;100140.19;3530677;82;34961;-80
2020/12/22 20:34:38;;;;;;;5.97;2.20;;;;;;;10.17;98.64;100151.52;3511659;81;98658;-80
2020/12/22 20:39:41;;;;;;;7.03;3.07;;;;;;;10.12;98.68;100143.05;3517177;82;26130;-78
2020/12/22 20:44:42;;;;;;;12.17;2.80;;;;;;;10.06;98.37;100173.44;3528293;82;98506;-78
2020/12/22 20:49:43;;;;;;;7.20;2.50;;;;;;;10.06;98.37;100173.44;3531883;82;35110;-79
2020/12/22 20:54:44;;;;;;;6.10;2.80;;;;;;;10.06;98.38;100180.31;3508706;82;98596;-77
2020/12/22 20:59:45;;;;;;;6.10;2.10;;;;;;;10.05;98.13;100188.92;3527165;82;35480;-78
2020/12/22 21:04:46;;;;;;;4.27;1.90;;;;;;;10.01;97.62;100188.88;3526806;82;98576;-79
2020/12/22 21:09:47;;;;;;;3.23;1.13;;;;;;;9.88;96.68;100197.77;3525194;82;35666;-78
2020/12/22 21:14:48;;;;;;;4.23;2.30;;;;;;;9.75;96.51;100208.23;3526771;80;98358;-78
2020/12/22 21:19:50;;;;;;;7.03;2.30;;;;;;;9.62;95.34;100215.16;3529087;82;35053;-77
2020/12/22 21:24:51;;;;;;;5.63;2.50;;;;;;;9.55;95.13;100213.69;3522703;82;98352;-77
2020/12/22 21:29:52;;;;;;;8.67;5.13;;;;;;;9.49;94.93;100213.81;3531326;82;34991;-78
2020/12/22 21:34:52;;;;;;;6.33;3.70;;;;;;;9.48;95.06;100220.48;3499570;82;98183;-78
2020/12/22 21:39:53;;;;;;;5.75;2.08;;;;;;;9.44;95.05;100233.97;3525947;82;35075;-78
2020/12/22 21:44:56;;;;;;;9.57;3.57;;;;;;;9.36;94.67;100231.72;3519920;82;98531;-76
2020/12/22 21:49:57;;;;;;;7.10;2.80;;;;;;;9.28;94.50;100242.98;3523084;82;32783;-78
2020/12/22 21:54:58;;;;;;;6.53;1.80;;;;;;;9.16;94.50;100244.00;3514975;82;98525;-78
2020/12/22 21:59:58;;;;;;;4.93;1.43;;;;;;;9.12;94.75;100254.73;3520464;82;32660;-76
2020/12/22 22:04:59;;;;;;;6.97;3.90;;;;;;;9.07;94.32;100259.97;3516996;81;98612;-78
2020/12/22 22:10:00;;;;;;;6.53;3.00;;;;;;;9.06;94.21;100257.59;3514899;82;32777;-77
2020/12/22 22:15:01;;;;;;;3.90;1.70;;;;;;;9.07;94.39;100265.46;3496429;82;98494;-78
2020/12/22 22:20:02;;;;;;;6.07;1.60;;;;;;;9.08;94.48;100262.92;3530910;82;32726;-78
2020/12/22 22:25:04;;;;;;;7.42;1.82;;;;;;;9.15;94.36;100275.94;3522689;81;98413;-79
2020/12/22 22:30:05;;;;;;;6.20;1.90;;;;;;;9.12;94.00;100273.38;3526255;82;27519;-79
2020/12/22 22:35:06;;;;;;;8.20;2.30;;;;;;;9.16;94.06;100276.17;3517651;81;98545;-79
2020/12/22 22:40:07;;;;;;;9.73;3.00;;;;;;;9.21;93.87;100278.00;3505408;82;26394;-79
2020/12/22 22:45:07;;;;;;;9.40;2.90;;;;;;;9.22;93.84;100276.83;3518655;82;98399;-79
2020/12/22 22:50:08;;;;;;;9.40;2.70;;;;;;;9.12;93.72;100273.95;3525149;82;25986;-79
2020/12/22 22:55:09;;;;;;;7.03;2.77;;;;;;;9.01;93.91;100279.30;3511888;82;98391;-79
2020/12/22 23:00:11;;;;;;;5.50;1.80;;;;;;;8.94;93.97;100283.88;3519661;82;26518;-79
2020/12/22 23:05:13;;;;;;;6.40;2.03;;;;;;;8.87;94.03;100297.47;3501650;82;98384;-80
2020/12/22 23:10:14;;;;;;;6.87;2.47;;;;;;;8.85;94.17;100294.31;3507503;83;26595;-80
2020/12/22 23:15:15;;;;;;;10.07;2.60;;;;;;;8.85;94.14;100288.83;3496581;82;98010;-80